sensor_id;sensor_type;location;lat;lon;timestamp;pressure;altitude;pressure_sealevel;temperature;humidity
76611;BME280;65503;48.534;9.062;2023-08-01T00:00:33;96045.16;;;20.46;62.25
76611;BME280;65503;48.534;9.062;2023-08-01T00:03:00;96040.78;;;20.50;62.49
76611;BME280;65503;48.534;9.062;2023-08-01T00:05:26;96039.34;;;20.52;61.63
76611;BME280;65503;48.534;9.062;2023-08-01T00:07:53;96031.16;;;20.57;60.77
76611;BME280;65503;48.534;9.062;2023-08-01T00:10:19;96037.47;;;20.61;62.45
76611;BME280;65503;48.534;9.062;2023-08-01T00:12:46;96032.41;;;20.69;61.48
76611;BME280;65503;48.534;9.062;2023-08-01T00:15:14;96014.78;;;20.68;61.96
76611;BME280;65503;48.534;9.062;2023-08-01T00:17:40;96012.28;;;20.62;63.64
76611;BME280;65503;48.534;9.062;2023-08-01T00:20:07;96014.50;;;20.60;64.40
76611;BME280;65503;48.534;9.062;2023-08-01T00:22:34;96019.53;;;20.53;65.01
76611;BME280;65503;48.534;9.062;2023-08-01T00:25:00;96006.94;;;20.45;65.81
76611;BME280;65503;48.534;9.062;2023-08-01T00:27:27;96007.59;;;20.42;65.70
76611;BME280;65503;48.534;9.062;2023-08-01T00:30:07;95989.03;;;20.37;65.35
76611;BME280;65503;48.534;9.062;2023-08-01T00:32:35;95984.31;;;20.34;65.52
76611;BME280;65503;48.534;9.062;2023-08-01T00:35:02;95978.34;;;20.20;66.46
76611;BME280;65503;48.534;9.062;2023-08-01T00:37:29;95982.75;;;20.16;66.99
76611;BME280;65503;48.534;9.062;2023-08-01T00:39:55;95977.53;;;20.19;67.15
76611;BME280;65503;48.534;9.062;2023-08-01T00:42:22;95976.75;;;20.19;67.76
76611;BME280;65503;48.534;9.062;2023-08-01T00:44:49;95982.09;;;20.19;67.80
76611;BME280;65503;48.534;9.062;2023-08-01T00:47:15;95972.06;;;20.16;68.25
76611;BME280;65503;48.534;9.062;2023-08-01T00:49:42;95964.81;;;20.08;68.58
76611;BME280;65503;48.534;9.062;2023-08-01T00:52:09;95962.13;;;20.08;68.68
76611;BME280;65503;48.534;9.062;2023-08-01T00:54:36;95970.16;;;20.08;66.84
76611;BME280;65503;48.534;9.062;2023-08-01T00:57:03;95968.91;;;20.14;65.82
76611;BME280;65503;48.534;9.062;2023-08-01T00:59:31;95970.16;;;20.25;65.55
76611;BME280;65503;48.534;9.062;2023-08-01T01:01:58;95965.28;;;20.36;62.49
76611;BME280;65503;48.534;9.062;2023-08-01T01:04:26;95963.38;;;20.45;62.47
76611;BME280;65503;48.534;9.062;2023-08-01T01:07:05;95956.94;;;20.54;61.97
76611;BME280;65503;48.534;9.062;2023-08-01T01:09:32;95956.28;;;20.57;61.71
76611;BME280;65503;48.534;9.062;2023-08-01T01:11:59;95966.66;;;20.68;60.73
76611;BME280;65503;48.534;9.062;2023-08-01T01:14:26;95950.91;;;20.75;59.45
76611;BME280;65503;48.534;9.062;2023-08-01T01:16:53;95963.00;;;20.89;58.70
76611;BME280;65503;48.534;9.062;2023-08-01T01:19:19;95952.72;;;21.00;59.08
76611;BME280;65503;48.534;9.062;2023-08-01T01:21:47;95958.88;;;20.92;60.29
76611;BME280;65503;48.534;9.062;2023-08-01T01:24:14;95951.84;;;20.79;60.63
76611;BME280;65503;48.534;9.062;2023-08-01T01:26:42;95937.53;;;20.75;60.71
76611;BME280;65503;48.534;9.062;2023-08-01T01:29:11;95928.63;;;20.53;62.12
76611;BME280;65503;48.534;9.062;2023-08-01T01:31:38;95931.16;;;20.41;62.70
76611;BME280;65503;48.534;9.062;2023-08-01T01:34:05;95932.91;;;20.37;61.96
76611;BME280;65503;48.534;9.062;2023-08-01T01:36:31;95933.72;;;20.38;62.42
76611;BME280;65503;48.534;9.062;2023-08-01T01:38:58;95910.56;;;20.42;61.21
76611;BME280;65503;48.534;9.062;2023-08-01T01:41:24;95921.41;;;20.45;61.48
76611;BME280;65503;48.534;9.062;2023-08-01T01:43:51;95910.41;;;20.55;61.65
76611;BME280;65503;48.534;9.062;2023-08-01T01:46:18;95904.88;;;20.60;60.87
76611;BME280;65503;48.534;9.062;2023-08-01T01:48:44;95907.81;;;20.68;60.87
76611;BME280;65503;48.534;9.062;2023-08-01T01:51:11;95899.00;;;20.76;60.12
76611;BME280;65503;48.534;9.062;2023-08-01T01:53:37;95892.38;;;20.82;60.06
76611;BME280;65503;48.534;9.062;2023-08-01T01:56:04;95890.16;;;20.84;60.65
76611;BME280;65503;48.534;9.062;2023-08-01T01:58:30;95885.75;;;20.88;60.19
76611;BME280;65503;48.534;9.062;2023-08-01T02:00:57;95890.44;;;20.91;59.91
76611;BME280;65503;48.534;9.062;2023-08-01T02:03:24;95874.38;;;20.91;60.00
76611;BME280;65503;48.534;9.062;2023-08-01T02:05:50;95875.81;;;20.88;62.06
76611;BME280;65503;48.534;9.062;2023-08-01T02:08:17;95872.69;;;20.86;61.31
76611;BME280;65503;48.534;9.062;2023-08-01T02:10:43;95872.38;;;20.88;61.09
76611;BME280;65503;48.534;9.062;2023-08-01T02:13:10;95868.13;;;20.87;61.68
76611;BME280;65503;48.534;9.062;2023-08-01T02:15:37;95869.03;;;20.91;59.99
76611;BME280;65503;48.534;9.062;2023-08-01T02:18:03;95869.03;;;20.91;59.97
76611;BME280;65503;48.534;9.062;2023-08-01T02:20:30;95866.53;;;20.94;60.58
76611;BME280;65503;48.534;9.062;2023-08-01T02:22:57;95866.03;;;21.01;59.78
76611;BME280;65503;48.534;9.062;2023-08-01T02:25:23;95869.59;;;21.05;59.45
76611;BME280;65503;48.534;9.062;2023-08-01T02:27:50;95867.41;;;21.07;60.10
76611;BME280;65503;48.534;9.062;2023-08-01T02:30:16;95868.31;;;21.11;59.28
76611;BME280;65503;48.534;9.062;2023-08-01T02:32:43;95869.41;;;21.10;59.96
76611;BME280;65503;48.534;9.062;2023-08-01T02:35:11;95864.38;;;21.09;60.44
76611;BME280;65503;48.534;9.062;2023-08-01T02:37:37;95869.59;;;21.05;61.27
76611;BME280;65503;48.534;9.062;2023-08-01T02:40:04;95864.88;;;21.02;61.91
76611;BME280;65503;48.534;9.062;2023-08-01T02:42:33;95863.47;;;21.04;59.81
76611;BME280;65503;48.534;9.062;2023-08-01T02:45:00;95855.13;;;21.06;58.79
76611;BME280;65503;48.534;9.062;2023-08-01T02:47:26;95847.34;;;21.13;58.92
76611;BME280;65503;48.534;9.062;2023-08-01T02:49:53;95859.16;;;21.21;59.18
76611;BME280;65503;48.534;9.062;2023-08-01T02:52:20;95863.53;;;21.25;58.46
76611;BME280;65503;48.534;9.062;2023-08-01T02:54:46;95853.59;;;21.26;58.82
76611;BME280;65503;48.534;9.062;2023-08-01T02:57:13;95867.59;;;21.31;57.93
76611;BME280;65503;48.534;9.062;2023-08-01T02:59:39;95870.44;;;21.26;58.31
76611;BME280;65503;48.534;9.062;2023-08-01T03:02:06;95870.59;;;21.30;58.68
76611;BME280;65503;48.534;9.062;2023-08-01T03:04:32;95855.50;;;21.25;57.75
76611;BME280;65503;48.534;9.062;2023-08-01T03:07:12;95866.00;;;21.30;58.44
76611;BME280;65503;48.534;9.062;2023-08-01T03:09:38;95862.03;;;21.36;58.07
76611;BME280;65503;48.534;9.062;2023-08-01T03:12:05;95862.78;;;21.46;57.92
76611;BME280;65503;48.534;9.062;2023-08-01T03:14:32;95864.34;;;21.47;57.70
76611;BME280;65503;48.534;9.062;2023-08-01T03:16:59;95869.03;;;21.50;58.35
76611;BME280;65503;48.534;9.062;2023-08-01T03:19:25;95863.69;;;21.50;58.43
76611;BME280;65503;48.534;9.062;2023-08-01T03:21:52;95861.69;;;21.47;57.87
76611;BME280;65503;48.534;9.062;2023-08-01T03:24:18;95860.53;;;21.48;57.92
76611;BME280;65503;48.534;9.062;2023-08-01T03:26:45;95871.72;;;21.50;57.55
76611;BME280;65503;48.534;9.062;2023-08-01T03:29:11;95859.25;;;21.54;57.87
76611;BME280;65503;48.534;9.062;2023-08-01T03:31:38;95861.28;;;21.57;57.83
76611;BME280;65503;48.534;9.062;2023-08-01T03:34:04;95848.78;;;21.61;57.27
76611;BME280;65503;48.534;9.062;2023-08-01T03:36:35;95858.09;;;21.63;57.01
76611;BME280;65503;48.534;9.062;2023-08-01T03:39:02;95863.56;;;21.67;56.69
76611;BME280;65503;48.534;9.062;2023-08-01T03:41:31;95850.03;;;21.63;56.37
76611;BME280;65503;48.534;9.062;2023-08-01T03:43:58;95852.84;;;21.67;56.22
76611;BME280;65503;48.534;9.062;2023-08-01T03:46:25;95856.63;;;21.66;55.87
76611;BME280;65503;48.534;9.062;2023-08-01T03:48:52;95854.41;;;21.68;56.18
76611;BME280;65503;48.534;9.062;2023-08-01T03:51:18;95848.75;;;21.69;55.62
76611;BME280;65503;48.534;9.062;2023-08-01T03:53:45;95858.47;;;21.74;55.59
76611;BME280;65503;48.534;9.062;2023-08-01T03:56:21;95866.69;;;21.69;55.21
76611;BME280;65503;48.534;9.062;2023-08-01T03:58:48;95863.63;;;21.79;55.04
76611;BME280;65503;48.534;9.062;2023-08-01T04:01:15;95863.81;;;21.74;54.76
76611;BME280;65503;48.534;9.062;2023-08-01T04:03:41;95862.50;;;21.80;54.90
76611;BME280;65503;48.534;9.062;2023-08-01T04:06:08;95849.56;;;21.82;55.02
76611;BME280;65503;48.534;9.062;2023-08-01T04:08:35;95856.63;;;21.66;55.27
76611;BME280;65503;48.534;9.062;2023-08-01T04:11:01;95864.19;;;21.84;54.76
76611;BME280;65503;48.534;9.062;2023-08-01T04:13:28;95858.19;;;21.88;54.60
76611;BME280;65503;48.534;9.062;2023-08-01T04:15:54;95847.34;;;21.84;54.95
76611;BME280;65503;48.534;9.062;2023-08-01T04:18:21;95851.06;;;21.71;54.79
76611;BME280;65503;48.534;9.062;2023-08-01T04:20:48;95845.50;;;21.76;55.12
76611;BME280;65503;48.534;9.062;2023-08-01T04:23:14;95849.69;;;21.65;54.89
76611;BME280;65503;48.534;9.062;2023-08-01T04:25:41;95845.50;;;21.76;55.28
76611;BME280;65503;48.534;9.062;2023-08-01T04:28:08;95825.00;;;21.80;54.47
76611;BME280;65503;48.534;9.062;2023-08-01T04:30:34;95836.72;;;21.75;54.56
76611;BME280;65503;48.534;9.062;2023-08-01T04:33:01;95837.25;;;21.69;55.15
76611;BME280;65503;48.534;9.062;2023-08-01T04:35:28;95826.59;;;21.81;54.58
76611;BME280;65503;48.534;9.062;2023-08-01T04:37:54;95813.31;;;21.84;54.47
76611;BME280;65503;48.534;9.062;2023-08-01T04:40:21;95789.16;;;21.72;54.78
76611;BME280;65503;48.534;9.062;2023-08-01T04:42:47;95759.16;;;21.79;54.58
76611;BME280;65503;48.534;9.062;2023-08-01T04:45:14;95756.38;;;21.88;54.92
76611;BME280;65503;48.534;9.062;2023-08-01T04:47:40;95743.97;;;21.83;54.96
76611;BME280;65503;48.534;9.062;2023-08-01T04:50:07;95741.97;;;21.80;54.90
76611;BME280;65503;48.534;9.062;2023-08-01T04:52:34;95718.41;;;21.73;55.08
76611;BME280;65503;48.534;9.062;2023-08-01T04:55:00;95699.56;;;21.70;54.83
76611;BME280;65503;48.534;9.062;2023-08-01T04:57:27;95680.59;;;21.42;55.27
76611;BME280;65503;48.534;9.062;2023-08-01T04:59:53;95671.81;;;21.54;55.77
76611;BME280;65503;48.534;9.062;2023-08-01T05:02:20;95659.13;;;21.63;54.93
76611;BME280;65503;48.534;9.062;2023-08-01T05:04:47;95657.13;;;21.72;54.50
76611;BME280;65503;48.534;9.062;2023-08-01T05:07:13;95671.22;;;21.69;53.75
76611;BME280;65503;48.534;9.062;2023-08-01T05:09:40;95696.44;;;21.80;53.26
76611;BME280;65503;48.534;9.062;2023-08-01T05:12:06;95711.72;;;21.79;52.78
76611;BME280;65503;48.534;9.062;2023-08-01T05:14:33;95702.22;;;21.82;52.56
76611;BME280;65503;48.534;9.062;2023-08-01T05:16:59;95701.81;;;21.92;52.52
76611;BME280;65503;48.534;9.062;2023-08-01T05:19:26;95692.09;;;21.88;51.69
76611;BME280;65503;48.534;9.062;2023-08-01T05:21:53;95686.88;;;21.91;51.91
76611;BME280;65503;48.534;9.062;2023-08-01T05:24:19;95699.84;;;22.01;51.69
76611;BME280;65503;48.534;9.062;2023-08-01T05:26:46;95697.84;;;21.98;51.00
76611;BME280;65503;48.534;9.062;2023-08-01T05:29:13;95694.28;;;22.06;50.95
76611;BME280;65503;48.534;9.062;2023-08-01T05:31:39;95685.34;;;22.14;51.09
76611;BME280;65503;48.534;9.062;2023-08-01T05:34:07;95690.03;;;22.05;50.88
76611;BME280;65503;48.534;9.062;2023-08-01T05:36:33;95688.34;;;22.13;50.78
76611;BME280;65503;48.534;9.062;2023-08-01T05:39:00;95693.16;;;22.07;50.45
76611;BME280;65503;48.534;9.062;2023-08-01T05:41:26;95700.88;;;22.21;50.52
76611;BME280;65503;48.534;9.062;2023-08-01T05:43:53;95695.75;;;21.83;49.97
76611;BME280;65503;48.534;9.062;2023-08-01T05:46:19;95710.94;;;21.79;50.61
76611;BME280;65503;48.534;9.062;2023-08-01T05:48:46;95713.94;;;21.77;50.60
76611;BME280;65503;48.534;9.062;2023-08-01T05:51:12;95698.00;;;21.81;50.08
76611;BME280;65503;48.534;9.062;2023-08-01T05:53:42;95701.81;;;21.80;50.41
76611;BME280;65503;48.534;9.062;2023-08-01T05:56:08;95707.63;;;21.94;50.91
76611;BME280;65503;48.534;9.062;2023-08-01T05:58:35;95705.16;;;21.89;50.35
76611;BME280;65503;48.534;9.062;2023-08-01T06:01:02;95715.28;;;21.71;51.64
76611;BME280;65503;48.534;9.062;2023-08-01T06:03:30;95728.34;;;21.73;51.75
76611;BME280;65503;48.534;9.062;2023-08-01T06:05:56;95733.03;;;21.76;51.29
76611;BME280;65503;48.534;9.062;2023-08-01T06:08:23;95735.44;;;21.57;51.92
76611;BME280;65503;48.534;9.062;2023-08-01T06:10:50;95742.50;;;21.40;52.92
76611;BME280;65503;48.534;9.062;2023-08-01T06:13:16;95741.34;;;21.29;52.75
76611;BME280;65503;48.534;9.062;2023-08-01T06:15:43;95749.66;;;21.49;52.41
76611;BME280;65503;48.534;9.062;2023-08-01T06:18:10;95746.44;;;21.22;53.09
76611;BME280;65503;48.534;9.062;2023-08-01T06:20:38;95734.06;;;21.09;53.45
76611;BME280;65503;48.534;9.062;2023-08-01T06:23:04;95757.84;;;21.11;53.41
76611;BME280;65503;48.534;9.062;2023-08-01T06:25:31;95755.41;;;20.97;53.81
76611;BME280;65503;48.534;9.062;2023-08-01T06:27:57;95755.88;;;21.20;53.01
76611;BME280;65503;48.534;9.062;2023-08-01T06:30:24;95752.44;;;21.19;53.06
76611;BME280;65503;48.534;9.062;2023-08-01T06:32:51;95743.31;;;21.41;53.11
76611;BME280;65503;48.534;9.062;2023-08-01T06:35:18;95748.34;;;21.13;53.44
76611;BME280;65503;48.534;9.062;2023-08-01T06:37:44;95743.00;;;20.92;53.77
76611;BME280;65503;48.534;9.062;2023-08-01T06:40:11;95751.34;;;20.91;53.97
76611;BME280;65503;48.534;9.062;2023-08-01T06:42:38;95748.13;;;21.06;53.50
76611;BME280;65503;48.534;9.062;2023-08-01T06:45:05;95754.53;;;21.34;53.20
76611;BME280;65503;48.534;9.062;2023-08-01T06:47:31;95764.16;;;21.48;52.59
76611;BME280;65503;48.534;9.062;2023-08-01T06:49:58;95761.69;;;21.42;52.63
76611;BME280;65503;48.534;9.062;2023-08-01T06:52:25;95748.91;;;21.27;53.03
76611;BME280;65503;48.534;9.062;2023-08-01T06:54:51;95757.16;;;21.22;53.44
76611;BME280;65503;48.534;9.062;2023-08-01T06:57:18;95755.84;;;21.28;53.20
76611;BME280;65503;48.534;9.062;2023-08-01T06:59:44;95748.88;;;21.48;52.83
76611;BME280;65503;48.534;9.062;2023-08-01T07:02:11;95762.34;;;21.39;53.03
76611;BME280;65503;48.534;9.062;2023-08-01T07:04:38;95761.31;;;21.53;53.18
76611;BME280;65503;48.534;9.062;2023-08-01T07:07:05;95773.84;;;21.40;53.14
76611;BME280;65503;48.534;9.062;2023-08-01T07:09:33;95767.88;;;21.55;53.04
76611;BME280;65503;48.534;9.062;2023-08-01T07:11:59;95771.88;;;21.70;52.66
76611;BME280;65503;48.534;9.062;2023-08-01T07:14:26;95775.44;;;21.74;52.57
76611;BME280;65503;48.534;9.062;2023-08-01T07:16:52;95764.25;;;21.72;52.15
76611;BME280;65503;48.534;9.062;2023-08-01T07:19:19;95766.34;;;21.87;52.31
76611;BME280;65503;48.534;9.062;2023-08-01T07:21:45;95764.75;;;21.86;52.42
76611;BME280;65503;48.534;9.062;2023-08-01T07:24:14;95771.34;;;21.56;52.65
76611;BME280;65503;48.534;9.062;2023-08-01T07:26:41;95773.97;;;21.64;52.96
76611;BME280;65503;48.534;9.062;2023-08-01T07:29:08;95754.78;;;21.41;53.28
76611;BME280;65503;48.534;9.062;2023-08-01T07:31:38;95748.78;;;21.44;54.36
76611;BME280;65503;48.534;9.062;2023-08-01T07:34:04;95753.81;;;21.25;53.92
76611;BME280;65503;48.534;9.062;2023-08-01T07:36:31;95763.59;;;21.42;53.88
76611;BME280;65503;48.534;9.062;2023-08-01T07:38:57;95770.84;;;21.41;54.01
76611;BME280;65503;48.534;9.062;2023-08-01T07:41:24;95771.44;;;20.97;55.38
76611;BME280;65503;48.534;9.062;2023-08-01T07:43:50;95770.53;;;21.22;54.91
76611;BME280;65503;48.534;9.062;2023-08-01T07:46:17;95779.88;;;21.08;55.62
76611;BME280;65503;48.534;9.062;2023-08-01T07:48:44;95784.38;;;21.24;55.25
76611;BME280;65503;48.534;9.062;2023-08-01T07:51:10;95794.88;;;21.00;56.21
76611;BME280;65503;48.534;9.062;2023-08-01T07:53:37;95793.22;;;20.87;57.49
76611;BME280;65503;48.534;9.062;2023-08-01T07:56:04;95781.53;;;20.24;60.67
76611;BME280;65503;48.534;9.062;2023-08-01T07:58:34;95780.06;;;19.89;63.06
76611;BME280;65503;48.534;9.062;2023-08-01T08:01:04;95777.44;;;19.71;65.09
76611;BME280;65503;48.534;9.062;2023-08-01T08:03:31;95786.09;;;19.51;66.03
76611;BME280;65503;48.534;9.062;2023-08-01T08:05:58;95800.78;;;18.88;67.53
76611;BME280;65503;48.534;9.062;2023-08-01T08:08:25;95792.09;;;18.66;69.30
76611;BME280;65503;48.534;9.062;2023-08-01T08:10:51;95787.88;;;18.73;69.76
76611;BME280;65503;48.534;9.062;2023-08-01T08:13:18;95772.09;;;18.46;70.79
76611;BME280;65503;48.534;9.062;2023-08-01T08:15:44;95767.34;;;18.34;71.87
76611;BME280;65503;48.534;9.062;2023-08-01T08:18:11;95766.16;;;18.49;72.36
76611;BME280;65503;48.534;9.062;2023-08-01T08:20:42;95750.47;;;18.39;72.28
76611;BME280;65503;48.534;9.062;2023-08-01T08:23:10;95761.72;;;18.36;72.42
76611;BME280;65503;48.534;9.062;2023-08-01T08:25:36;95773.78;;;18.33;72.76
76611;BME280;65503;48.534;9.062;2023-08-01T08:28:03;95776.31;;;18.38;72.66
76611;BME280;65503;48.534;9.062;2023-08-01T08:30:30;95781.78;;;18.42;72.67
76611;BME280;65503;48.534;9.062;2023-08-01T08:32:57;95785.03;;;18.61;73.13
76611;BME280;65503;48.534;9.062;2023-08-01T08:35:25;95797.38;;;18.57;73.22
76611;BME280;65503;48.534;9.062;2023-08-01T08:37:51;95794.63;;;18.40;73.00
76611;BME280;65503;48.534;9.062;2023-08-01T08:40:18;95790.81;;;18.54;73.69
76611;BME280;65503;48.534;9.062;2023-08-01T08:42:45;95796.47;;;18.62;73.69
76611;BME280;65503;48.534;9.062;2023-08-01T08:45:14;95790.28;;;18.44;74.59
76611;BME280;65503;48.534;9.062;2023-08-01T08:47:44;95802.25;;;18.55;74.64
76611;BME280;65503;48.534;9.062;2023-08-01T08:50:15;95800.31;;;18.47;74.72
76611;BME280;65503;48.534;9.062;2023-08-01T08:52:42;95808.03;;;18.57;75.02
76611;BME280;65503;48.534;9.062;2023-08-01T08:55:09;95801.16;;;18.56;74.58
76611;BME280;65503;48.534;9.062;2023-08-01T08:57:35;95810.09;;;18.60;75.66
76611;BME280;65503;48.534;9.062;2023-08-01T09:00:04;95796.34;;;18.75;74.66
76611;BME280;65503;48.534;9.062;2023-08-01T09:02:32;95799.34;;;18.74;74.58
76611;BME280;65503;48.534;9.062;2023-08-01T09:04:59;95793.53;;;18.80;74.59
76611;BME280;65503;48.534;9.062;2023-08-01T09:07:29;95790.59;;;18.90;74.47
76611;BME280;65503;48.534;9.062;2023-08-01T09:09:56;95790.13;;;19.06;74.18
76611;BME280;65503;48.534;9.062;2023-08-01T09:12:22;95794.56;;;19.19;74.44
76611;BME280;65503;48.534;9.062;2023-08-01T09:14:52;95799.25;;;19.22;73.61
76611;BME280;65503;48.534;9.062;2023-08-01T09:17:25;95792.97;;;19.18;73.22
76611;BME280;65503;48.534;9.062;2023-08-01T09:19:56;95804.25;;;19.15;73.45
76611;BME280;65503;48.534;9.062;2023-08-01T09:22:23;95803.50;;;19.40;73.41
76611;BME280;65503;48.534;9.062;2023-08-01T09:24:53;95806.94;;;19.84;72.88
76611;BME280;65503;48.534;9.062;2023-08-01T09:27:21;95806.72;;;20.06;71.77
76611;BME280;65503;48.534;9.062;2023-08-01T09:29:48;95808.13;;;20.12;71.03
76611;BME280;65503;48.534;9.062;2023-08-01T09:32:15;95804.72;;;20.03;70.49
76611;BME280;65503;48.534;9.062;2023-08-01T09:34:42;95803.66;;;19.87;71.00
76611;BME280;65503;48.534;9.062;2023-08-01T09:37:09;95805.06;;;19.84;71.39
76611;BME280;65503;48.534;9.062;2023-08-01T09:39:36;95809.44;;;19.89;71.49
76611;BME280;65503;48.534;9.062;2023-08-01T09:42:02;95807.72;;;19.93;71.30
76611;BME280;65503;48.534;9.062;2023-08-01T09:44:29;95826.28;;;19.80;71.04
76611;BME280;65503;48.534;9.062;2023-08-01T09:47:00;95807.09;;;19.78;71.61
76611;BME280;65503;48.534;9.062;2023-08-01T09:49:28;95815.75;;;19.84;71.80
76611;BME280;65503;48.534;9.062;2023-08-01T09:51:56;95825.00;;;19.87;71.70
76611;BME280;65503;48.534;9.062;2023-08-01T09:54:23;95831.94;;;19.88;71.95
76611;BME280;65503;48.534;9.062;2023-08-01T09:56:51;95820.59;;;19.91;71.94
76611;BME280;65503;48.534;9.062;2023-08-01T10:01:47;95830.03;;;19.79;71.95
76611;BME280;65503;48.534;9.062;2023-08-01T10:04:25;95825.00;;;19.87;71.74
76611;BME280;65503;48.534;9.062;2023-08-01T10:07:02;95842.75;;;19.74;72.53
76611;BME280;65503;48.534;9.062;2023-08-01T10:09:33;95836.31;;;19.49;73.46
76611;BME280;65503;48.534;9.062;2023-08-01T10:12:02;95841.34;;;19.42;74.22
76611;BME280;65503;48.534;9.062;2023-08-01T10:14:29;95845.28;;;19.53;74.75
76611;BME280;65503;48.534;9.062;2023-08-01T10:16:56;95842.75;;;19.48;74.30
76611;BME280;65503;48.534;9.062;2023-08-01T10:19:23;95832.72;;;19.54;74.49
76611;BME280;65503;48.534;9.062;2023-08-01T10:21:51;95829.13;;;19.58;74.91
76611;BME280;65503;48.534;9.062;2023-08-01T10:24:23;95830.66;;;19.59;75.13
76611;BME280;65503;48.534;9.062;2023-08-01T10:26:50;95843.56;;;19.74;75.32
76611;BME280;65503;48.534;9.062;2023-08-01T10:29:17;95833.50;;;19.54;74.51
76611;BME280;65503;48.534;9.062;2023-08-01T10:31:51;95837.13;;;19.58;75.03
76611;BME280;65503;48.534;9.062;2023-08-01T10:34:19;95833.66;;;19.75;74.97
76611;BME280;65503;48.534;9.062;2023-08-01T10:36:55;95839.13;;;19.96;74.85
76611;BME280;65503;48.534;9.062;2023-08-01T10:39:22;95840.00;;;20.34;74.11
76611;BME280;65503;48.534;9.062;2023-08-01T10:42:03;95849.09;;;20.88;73.24
76611;BME280;65503;48.534;9.062;2023-08-01T10:44:29;95842.28;;;21.29;71.58
76611;BME280;65503;48.534;9.062;2023-08-01T10:49:35;95848.78;;;21.61;70.76
76611;BME280;65503;48.534;9.062;2023-08-01T10:52:03;95837.19;;;21.57;69.84
76611;BME280;65503;48.534;9.062;2023-08-01T10:54:30;95842.81;;;21.64;69.25
76611;BME280;65503;48.534;9.062;2023-08-01T10:56:58;95852.72;;;21.63;68.93
76611;BME280;65503;48.534;9.062;2023-08-01T10:59:25;95849.19;;;21.51;68.74
76611;BME280;65503;48.534;9.062;2023-08-01T11:01:53;95850.50;;;21.65;68.55
76611;BME280;65503;48.534;9.062;2023-08-01T11:04:21;95846.31;;;21.56;67.90
76611;BME280;65503;48.534;9.062;2023-08-01T11:06:50;95845.41;;;21.52;67.85
76611;BME280;65503;48.534;9.062;2023-08-01T11:09:18;95846.06;;;21.69;68.29
76611;BME280;65503;48.534;9.062;2023-08-01T11:11:48;95841.88;;;21.60;66.90
76611;BME280;65503;48.534;9.062;2023-08-01T11:14:16;95848.78;;;21.81;67.15
76611;BME280;65503;48.534;9.062;2023-08-01T11:16:43;95844.59;;;21.72;66.09
76611;BME280;65503;48.534;9.062;2023-08-01T11:19:24;95845.94;;;22.19;64.65
76611;BME280;65503;48.534;9.062;2023-08-01T11:21:52;95847.78;;;22.52;63.85
76611;BME280;65503;48.534;9.062;2023-08-01T11:24:19;95846.19;;;22.27;64.20
76611;BME280;65503;48.534;9.062;2023-08-01T11:26:48;95853.72;;;22.12;64.10
76611;BME280;65503;48.534;9.062;2023-08-01T11:29:16;95872.00;;;21.98;64.82
76611;BME280;65503;48.534;9.062;2023-08-01T11:31:59;95873.44;;;21.96;64.76
76611;BME280;65503;48.534;9.062;2023-08-01T11:34:26;95872.44;;;21.79;61.34
76611;BME280;65503;48.534;9.062;2023-08-01T11:36:53;95872.50;;;21.71;57.99
76611;BME280;65503;48.534;9.062;2023-08-01T11:39:19;95866.28;;;22.00;58.42
76611;BME280;65503;48.534;9.062;2023-08-01T11:41:48;95879.00;;;22.23;55.20
76611;BME280;65503;48.534;9.062;2023-08-01T11:44:15;95868.53;;;22.31;54.84
76611;BME280;65503;48.534;9.062;2023-08-01T11:46:42;95875.69;;;22.27;56.17
76611;BME280;65503;48.534;9.062;2023-08-01T11:49:09;95878.25;;;22.80;54.42
76611;BME280;65503;48.534;9.062;2023-08-01T11:51:43;95881.84;;;23.21;53.17
76611;BME280;65503;48.534;9.062;2023-08-01T11:54:10;95886.50;;;23.60;52.21
76611;BME280;65503;48.534;9.062;2023-08-01T11:56:38;95886.44;;;24.24;53.10
76611;BME280;65503;48.534;9.062;2023-08-01T11:59:13;95886.94;;;24.74;48.91
76611;BME280;65503;48.534;9.062;2023-08-01T12:01:43;95889.22;;;24.72;48.24
76611;BME280;65503;48.534;9.062;2023-08-01T12:04:11;95884.09;;;24.23;45.91
76611;BME280;65503;48.534;9.062;2023-08-01T12:06:38;95887.75;;;24.31;49.28
76611;BME280;65503;48.534;9.062;2023-08-01T12:09:12;95890.16;;;24.20;46.72
76611;BME280;65503;48.534;9.062;2023-08-01T12:11:39;95905.88;;;24.06;46.97
76611;BME280;65503;48.534;9.062;2023-08-01T12:14:13;95896.47;;;24.00;46.83
76611;BME280;65503;48.534;9.062;2023-08-01T12:16:42;95900.84;;;24.32;49.23
76611;BME280;65503;48.534;9.062;2023-08-01T12:19:16;95892.97;;;24.39;46.28
76611;BME280;65503;48.534;9.062;2023-08-01T12:21:44;95898.47;;;24.58;45.95
76611;BME280;65503;48.534;9.062;2023-08-01T12:24:11;95898.34;;;24.39;45.81
76611;BME280;65503;48.534;9.062;2023-08-01T12:26:37;95893.72;;;24.24;46.17
76611;BME280;65503;48.534;9.062;2023-08-01T12:29:04;95893.16;;;24.46;45.31
76611;BME280;65503;48.534;9.062;2023-08-01T12:31:31;95886.59;;;24.59;43.32
76611;BME280;65503;48.534;9.062;2023-08-01T12:33:58;95894.53;;;24.40;45.56
76611;BME280;65503;48.534;9.062;2023-08-01T12:36:24;95898.00;;;25.16;45.60
76611;BME280;65503;48.534;9.062;2023-08-01T12:38:51;95904.53;;;25.65;42.73
76611;BME280;65503;48.534;9.062;2023-08-01T12:41:18;95891.47;;;25.01;42.19
76611;BME280;65503;48.534;9.062;2023-08-01T12:43:46;95893.44;;;24.73;43.47
76611;BME280;65503;48.534;9.062;2023-08-01T12:46:12;95912.13;;;24.65;45.54
76611;BME280;65503;48.534;9.062;2023-08-01T12:48:39;95918.19;;;24.62;44.32
76611;BME280;65503;48.534;9.062;2023-08-01T12:51:06;95906.88;;;24.41;43.27
76611;BME280;65503;48.534;9.062;2023-08-01T12:53:32;95909.78;;;24.20;44.59
76611;BME280;65503;48.534;9.062;2023-08-01T12:55:59;95913.22;;;24.21;44.88
76611;BME280;65503;48.534;9.062;2023-08-01T12:58:25;95917.81;;;24.48;44.99
76611;BME280;65503;48.534;9.062;2023-08-01T13:00:52;95918.47;;;24.17;44.11
76611;BME280;65503;48.534;9.062;2023-08-01T13:03:18;95926.44;;;24.54;43.99
76611;BME280;65503;48.534;9.062;2023-08-01T13:05:45;95912.88;;;24.50;41.53